sensor_id;sensor_type;location;lat;lon;timestamp;P1;durP1;ratioP1;P2;durP2;ratioP2
37221;SDS011;23119;51.842;-2.230;2022-12-07T00:01:38;15.15;;;7.13;;
37221;SDS011;23119;51.842;-2.230;2022-12-07T00:04:12;15.73;;;7.70;;
37221;SDS011;23119;51.842;-2.230;2022-12-07T00:06:40;14.95;;;8.43;;
37221;SDS011;23119;51.842;-2.230;2022-12-07T00:09:12;12.45;;;7.60;;
37221;SDS011;23119;51.842;-2.230;2022-12-07T00:11:39;14.98;;;7.85;;
37221;SDS011;23119;51.842;-2.230;2022-12-07T00:14:06;16.27;;;7.88;;
37221;SDS011;23119;51.842;-2.230;2022-12-07T00:16:34;15.73;;;7.15;;
37221;SDS011;23119;51.842;-2.230;2022-12-07T00:19:01;18.75;;;7.90;;
37221;SDS011;23119;51.842;-2.230;2022-12-07T00:21:29;15.82;;;7.38;;
37221;SDS011;23119;51.842;-2.230;2022-12-07T00:23:57;14.65;;;8.25;;
37221;SDS011;23119;51.842;-2.230;2022-12-07T00:26:30;16.25;;;7.75;;
37221;SDS011;23119;51.842;-2.230;2022-12-07T00:29:06;16.52;;;8.07;;
37221;SDS011;23119;51.842;-2.230;2022-12-07T00:31:36;16.27;;;7.82;;
37221;SDS011;23119;51.842;-2.230;2022-12-07T00:34:05;19.30;;;7.90;;
37221;SDS011;23119;51.842;-2.230;2022-12-07T00:36:32;12.98;;;6.80;;
37221;SDS011;23119;51.842;-2.230;2022-12-07T00:38:58;15.43;;;7.93;;
37221;SDS011;23119;51.842;-2.230;2022-12-07T00:41:26;21.13;;;9.30;;
37221;SDS011;23119;51.842;-2.230;2022-12-07T00:43:52;15.10;;;7.05;;
37221;SDS011;23119;51.842;-2.230;2022-12-07T00:46:19;25.70;;;7.65;;
37221;SDS011;23119;51.842;-2.230;2022-12-07T00:48:46;14.35;;;6.43;;
37221;SDS011;23119;51.842;-2.230;2022-12-07T00:51:12;15.20;;;7.30;;
37221;SDS011;23119;51.842;-2.230;2022-12-07T00:53:40;17.95;;;7.40;;
37221;SDS011;23119;51.842;-2.230;2022-12-07T00:56:09;17.70;;;7.47;;
37221;SDS011;23119;51.842;-2.230;2022-12-07T00:58:37;17.27;;;7.30;;
37221;SDS011;23119;51.842;-2.230;2022-12-07T01:01:06;15.00;;;7.03;;
37221;SDS011;23119;51.842;-2.230;2022-12-07T01:03:36;13.27;;;6.65;;
37221;SDS011;23119;51.842;-2.230;2022-12-07T01:06:05;16.25;;;7.10;;
37221;SDS011;23119;51.842;-2.230;2022-12-07T01:08:33;12.98;;;6.68;;
37221;SDS011;23119;51.842;-2.230;2022-12-07T01:11:03;19.25;;;8.38;;
37221;SDS011;23119;51.842;-2.230;2022-12-07T01:13:31;11.35;;;6.55;;
37221;SDS011;23119;51.842;-2.230;2022-12-07T01:15:58;14.60;;;6.80;;
37221;SDS011;23119;51.842;-2.230;2022-12-07T01:18:26;15.57;;;6.28;;
37221;SDS011;23119;51.842;-2.230;2022-12-07T01:21:06;16.48;;;7.95;;
37221;SDS011;23119;51.842;-2.230;2022-12-07T01:26:01;12.02;;;6.25;;
37221;SDS011;23119;51.842;-2.230;2022-12-07T01:28:36;15.85;;;7.07;;
37221;SDS011;23119;51.842;-2.230;2022-12-07T01:31:03;14.77;;;6.60;;
37221;SDS011;23119;51.842;-2.230;2022-12-07T01:33:32;15.15;;;6.45;;
37221;SDS011;23119;51.842;-2.230;2022-12-07T01:36:02;14.00;;;6.60;;
37221;SDS011;23119;51.842;-2.230;2022-12-07T01:38:39;15.43;;;6.70;;
37221;SDS011;23119;51.842;-2.230;2022-12-07T01:41:05;16.27;;;6.68;;
37221;SDS011;23119;51.842;-2.230;2022-12-07T01:43:32;13.38;;;7.20;;
37221;SDS011;23119;51.842;-2.230;2022-12-07T01:45:59;12.40;;;6.85;;
37221;SDS011;23119;51.842;-2.230;2022-12-07T01:48:27;12.07;;;7.00;;
37221;SDS011;23119;51.842;-2.230;2022-12-07T01:51:00;18.10;;;7.00;;
37221;SDS011;23119;51.842;-2.230;2022-12-07T01:53:28;13.30;;;6.43;;
37221;SDS011;23119;51.842;-2.230;2022-12-07T01:55:55;16.75;;;7.30;;
37221;SDS011;23119;51.842;-2.230;2022-12-07T01:58:23;16.35;;;8.15;;
37221;SDS011;23119;51.842;-2.230;2022-12-07T02:00:49;15.35;;;6.78;;
37221;SDS011;23119;51.842;-2.230;2022-12-07T02:03:19;14.32;;;6.88;;
37221;SDS011;23119;51.842;-2.230;2022-12-07T02:05:52;11.73;;;6.28;;
37221;SDS011;23119;51.842;-2.230;2022-12-07T02:08:19;15.82;;;6.47;;
37221;SDS011;23119;51.842;-2.230;2022-12-07T02:10:45;12.25;;;6.35;;
37221;SDS011;23119;51.842;-2.230;2022-12-07T02:13:15;15.07;;;6.45;;
37221;SDS011;23119;51.842;-2.230;2022-12-07T02:15:49;21.73;;;7.03;;
37221;SDS011;23119;51.842;-2.230;2022-12-07T02:21:11;15.57;;;6.57;;
37221;SDS011;23119;51.842;-2.230;2022-12-07T02:23:47;12.88;;;5.38;;
37221;SDS011;23119;51.842;-2.230;2022-12-07T02:32:25;15.50;;;7.07;;
37221;SDS011;23119;51.842;-2.230;2022-12-07T02:35:07;15.55;;;6.45;;
37221;SDS011;23119;51.842;-2.230;2022-12-07T02:37:51;11.55;;;6.28;;
37221;SDS011;23119;51.842;-2.230;2022-12-07T02:40:59;10.15;;;4.88;;
37221;SDS011;23119;51.842;-2.230;2022-12-07T02:44:06;17.42;;;6.43;;
37221;SDS011;23119;51.842;-2.230;2022-12-07T02:46:30;20.65;;;6.55;;
37221;SDS011;23119;51.842;-2.230;2022-12-07T02:49:01;12.25;;;5.78;;
37221;SDS011;23119;51.842;-2.230;2022-12-07T02:51:32;9.55;;;4.95;;
37221;SDS011;23119;51.842;-2.230;2022-12-07T02:53:59;14.10;;;6.28;;
37221;SDS011;23119;51.842;-2.230;2022-12-07T02:56:39;13.00;;;5.43;;
37221;SDS011;23119;51.842;-2.230;2022-12-07T02:59:23;15.02;;;6.47;;
37221;SDS011;23119;51.842;-2.230;2022-12-07T03:07:42;14.43;;;5.53;;
37221;SDS011;23119;51.842;-2.230;2022-12-07T03:12:54;14.30;;;6.00;;
37221;SDS011;23119;51.842;-2.230;2022-12-07T03:15:45;15.05;;;6.38;;
37221;SDS011;23119;51.842;-2.230;2022-12-07T03:18:20;16.52;;;6.55;;
37221;SDS011;23119;51.842;-2.230;2022-12-07T03:20:49;15.73;;;6.35;;
37221;SDS011;23119;51.842;-2.230;2022-12-07T03:23:17;12.35;;;4.65;;
37221;SDS011;23119;51.842;-2.230;2022-12-07T03:25:47;20.60;;;5.60;;
37221;SDS011;23119;51.842;-2.230;2022-12-07T03:28:19;14.18;;;4.88;;
37221;SDS011;23119;51.842;-2.230;2022-12-07T03:30:56;14.30;;;5.75;;
37221;SDS011;23119;51.842;-2.230;2022-12-07T03:34:06;8.40;;;4.88;;
37221;SDS011;23119;51.842;-2.230;2022-12-07T03:39:22;12.40;;;5.25;;
37221;SDS011;23119;51.842;-2.230;2022-12-07T03:42:00;12.38;;;5.13;;
37221;SDS011;23119;51.842;-2.230;2022-12-07T03:44:29;9.30;;;4.43;;
37221;SDS011;23119;51.842;-2.230;2022-12-07T03:54:40;9.60;;;4.38;;
37221;SDS011;23119;51.842;-2.230;2022-12-07T03:57:12;14.70;;;5.20;;
37221;SDS011;23119;51.842;-2.230;2022-12-07T03:59:39;11.50;;;4.65;;
37221;SDS011;23119;51.842;-2.230;2022-12-07T04:02:06;13.48;;;3.72;;
37221;SDS011;23119;51.842;-2.230;2022-12-07T04:04:33;10.68;;;4.72;;
37221;SDS011;23119;51.842;-2.230;2022-12-07T04:07:02;12.77;;;5.30;;
37221;SDS011;23119;51.842;-2.230;2022-12-07T04:09:28;11.70;;;4.43;;
37221;SDS011;23119;51.842;-2.230;2022-12-07T04:11:53;12.85;;;4.90;;
37221;SDS011;23119;51.842;-2.230;2022-12-07T04:14:19;10.55;;;4.65;;
37221;SDS011;23119;51.842;-2.230;2022-12-07T04:16:47;11.00;;;3.92;;
37221;SDS011;23119;51.842;-2.230;2022-12-07T04:19:15;13.77;;;5.78;;
37221;SDS011;23119;51.842;-2.230;2022-12-07T04:21:44;9.32;;;4.72;;
37221;SDS011;23119;51.842;-2.230;2022-12-07T04:24:11;10.52;;;5.00;;
37221;SDS011;23119;51.842;-2.230;2022-12-07T04:26:38;9.13;;;3.85;;
37221;SDS011;23119;51.842;-2.230;2022-12-07T04:29:04;13.07;;;4.95;;
37221;SDS011;23119;51.842;-2.230;2022-12-07T04:31:29;10.48;;;5.07;;
37221;SDS011;23119;51.842;-2.230;2022-12-07T04:33:55;9.48;;;4.10;;
37221;SDS011;23119;51.842;-2.230;2022-12-07T04:36:21;12.52;;;3.75;;
37221;SDS011;23119;51.842;-2.230;2022-12-07T04:38:49;9.73;;;4.45;;
37221;SDS011;23119;51.842;-2.230;2022-12-07T04:41:17;10.63;;;5.07;;
37221;SDS011;23119;51.842;-2.230;2022-12-07T04:43:43;13.48;;;5.18;;
37221;SDS011;23119;51.842;-2.230;2022-12-07T04:46:09;10.75;;;4.68;;
37221;SDS011;23119;51.842;-2.230;2022-12-07T04:48:34;10.20;;;4.30;;
37221;SDS011;23119;51.842;-2.230;2022-12-07T04:51:02;10.50;;;5.25;;
37221;SDS011;23119;51.842;-2.230;2022-12-07T04:53:28;13.13;;;5.18;;
37221;SDS011;23119;51.842;-2.230;2022-12-07T04:55:54;11.18;;;4.63;;
37221;SDS011;23119;51.842;-2.230;2022-12-07T04:58:19;9.23;;;4.72;;
37221;SDS011;23119;51.842;-2.230;2022-12-07T05:00:45;12.85;;;5.13;;
37221;SDS011;23119;51.842;-2.230;2022-12-07T05:03:13;10.65;;;4.97;;
37221;SDS011;23119;51.842;-2.230;2022-12-07T05:05:42;9.85;;;4.50;;
37221;SDS011;23119;51.842;-2.230;2022-12-07T05:08:07;13.00;;;4.75;;
37221;SDS011;23119;51.842;-2.230;2022-12-07T05:10:33;10.18;;;5.03;;
37221;SDS011;23119;51.842;-2.230;2022-12-07T05:12:59;10.70;;;5.35;;
37221;SDS011;23119;51.842;-2.230;2022-12-07T05:15:24;17.13;;;4.82;;
37221;SDS011;23119;51.842;-2.230;2022-12-07T05:17:50;11.75;;;4.60;;
37221;SDS011;23119;51.842;-2.230;2022-12-07T05:20:17;15.23;;;5.97;;
37221;SDS011;23119;51.842;-2.230;2022-12-07T05:22:43;12.85;;;5.60;;
37221;SDS011;23119;51.842;-2.230;2022-12-07T05:25:08;8.32;;;4.82;;
37221;SDS011;23119;51.842;-2.230;2022-12-07T05:27:34;12.07;;;5.78;;
37221;SDS011;23119;51.842;-2.230;2022-12-07T05:30:00;12.88;;;5.47;;
37221;SDS011;23119;51.842;-2.230;2022-12-07T05:32:25;12.63;;;5.70;;
37221;SDS011;23119;51.842;-2.230;2022-12-07T05:34:51;10.57;;;5.15;;
37221;SDS011;23119;51.842;-2.230;2022-12-07T05:37:19;12.30;;;5.50;;
37221;SDS011;23119;51.842;-2.230;2022-12-07T05:39:45;12.43;;;5.97;;
37221;SDS011;23119;51.842;-2.230;2022-12-07T05:42:13;14.75;;;5.20;;
37221;SDS011;23119;51.842;-2.230;2022-12-07T05:44:42;12.18;;;5.55;;
37221;SDS011;23119;51.842;-2.230;2022-12-07T05:47:10;14.80;;;5.53;;
37221;SDS011;23119;51.842;-2.230;2022-12-07T05:49:36;13.65;;;5.68;;
37221;SDS011;23119;51.842;-2.230;2022-12-07T05:52:02;13.57;;;6.00;;
37221;SDS011;23119;51.842;-2.230;2022-12-07T05:54:28;11.13;;;5.22;;
37221;SDS011;23119;51.842;-2.230;2022-12-07T05:56:54;11.65;;;5.72;;
37221;SDS011;23119;51.842;-2.230;2022-12-07T05:59:20;15.65;;;5.55;;
37221;SDS011;23119;51.842;-2.230;2022-12-07T06:01:58;15.68;;;5.68;;
37221;SDS011;23119;51.842;-2.230;2022-12-07T06:04:29;13.32;;;5.70;;
37221;SDS011;23119;51.842;-2.230;2022-12-07T06:06:58;13.33;;;5.27;;
37221;SDS011;23119;51.842;-2.230;2022-12-07T06:09:25;14.20;;;5.45;;
37221;SDS011;23119;51.842;-2.230;2022-12-07T06:11:55;12.93;;;5.60;;
37221;SDS011;23119;51.842;-2.230;2022-12-07T06:14:40;16.15;;;5.65;;
37221;SDS011;23119;51.842;-2.230;2022-12-07T06:17:06;15.73;;;6.22;;
37221;SDS011;23119;51.842;-2.230;2022-12-07T06:19:31;15.57;;;7.13;;
37221;SDS011;23119;51.842;-2.230;2022-12-07T06:21:57;16.70;;;6.00;;
37221;SDS011;23119;51.842;-2.230;2022-12-07T06:24:24;14.25;;;5.45;;
37221;SDS011;23119;51.842;-2.230;2022-12-07T06:26:50;13.07;;;5.93;;
37221;SDS011;23119;51.842;-2.230;2022-12-07T06:29:16;15.23;;;5.85;;
37221;SDS011;23119;51.842;-2.230;2022-12-07T06:31:42;18.63;;;6.82;;
37221;SDS011;23119;51.842;-2.230;2022-12-07T06:34:12;17.67;;;6.45;;
37221;SDS011;23119;51.842;-2.230;2022-12-07T06:37:00;15.57;;;6.68;;
37221;SDS011;23119;51.842;-2.230;2022-12-07T06:39:28;15.07;;;5.72;;
37221;SDS011;23119;51.842;-2.230;2022-12-07T06:41:54;15.43;;;5.75;;
37221;SDS011;23119;51.842;-2.230;2022-12-07T06:44:21;9.82;;;4.90;;
37221;SDS011;23119;51.842;-2.230;2022-12-07T06:46:48;13.27;;;5.20;;
37221;SDS011;23119;51.842;-2.230;2022-12-07T06:49:17;20.80;;;5.95;;
37221;SDS011;23119;51.842;-2.230;2022-12-07T06:51:43;20.23;;;5.30;;
37221;SDS011;23119;51.842;-2.230;2022-12-07T06:54:09;12.35;;;5.85;;
37221;SDS011;23119;51.842;-2.230;2022-12-07T06:56:36;15.65;;;5.65;;
37221;SDS011;23119;51.842;-2.230;2022-12-07T06:59:05;14.82;;;6.20;;
37221;SDS011;23119;51.842;-2.230;2022-12-07T07:01:31;10.77;;;4.93;;
37221;SDS011;23119;51.842;-2.230;2022-12-07T07:04:00;13.77;;;6.18;;
37221;SDS011;23119;51.842;-2.230;2022-12-07T07:06:29;15.38;;;5.80;;
37221;SDS011;23119;51.842;-2.230;2022-12-07T07:08:58;14.50;;;5.63;;
37221;SDS011;23119;51.842;-2.230;2022-12-07T07:11:23;12.38;;;6.07;;
37221;SDS011;23119;51.842;-2.230;2022-12-07T07:13:49;17.33;;;6.20;;
37221;SDS011;23119;51.842;-2.230;2022-12-07T07:16:15;14.00;;;7.03;;
37221;SDS011;23119;51.842;-2.230;2022-12-07T07:18:43;14.82;;;6.88;;
37221;SDS011;23119;51.842;-2.230;2022-12-07T07:21:09;19.52;;;7.20;;
37221;SDS011;23119;51.842;-2.230;2022-12-07T07:23:37;19.73;;;8.32;;
37221;SDS011;23119;51.842;-2.230;2022-12-07T07:26:02;17.83;;;7.88;;
37221;SDS011;23119;51.842;-2.230;2022-12-07T07:28:31;15.10;;;7.47;;
37221;SDS011;23119;51.842;-2.230;2022-12-07T07:30:56;17.05;;;6.65;;
37221;SDS011;23119;51.842;-2.230;2022-12-07T07:33:25;20.02;;;6.65;;
37221;SDS011;23119;51.842;-2.230;2022-12-07T07:35:53;15.85;;;6.90;;
37221;SDS011;23119;51.842;-2.230;2022-12-07T07:38:21;15.00;;;7.50;;
37221;SDS011;23119;51.842;-2.230;2022-12-07T07:40:47;17.30;;;7.50;;
37221;SDS011;23119;51.842;-2.230;2022-12-07T07:43:16;14.98;;;7.80;;
37221;SDS011;23119;51.842;-2.230;2022-12-07T07:45:42;17.98;;;7.18;;
37221;SDS011;23119;51.842;-2.230;2022-12-07T07:48:12;20.70;;;7.80;;
37221;SDS011;23119;51.842;-2.230;2022-12-07T07:50:43;15.43;;;6.70;;
37221;SDS011;23119;51.842;-2.230;2022-12-07T07:53:09;16.17;;;7.22;;
37221;SDS011;23119;51.842;-2.230;2022-12-07T07:55:35;14.30;;;7.72;;
37221;SDS011;23119;51.842;-2.230;2022-12-07T07:58:00;20.52;;;9.50;;
37221;SDS011;23119;51.842;-2.230;2022-12-07T08:00:26;21.60;;;8.88;;
37221;SDS011;23119;51.842;-2.230;2022-12-07T08:02:52;16.25;;;8.20;;
37221;SDS011;23119;51.842;-2.230;2022-12-07T08:05:17;16.40;;;8.38;;
37221;SDS011;23119;51.842;-2.230;2022-12-07T08:07:43;20.88;;;7.90;;
37221;SDS011;23119;51.842;-2.230;2022-12-07T08:10:10;19.85;;;8.45;;
37221;SDS011;23119;51.842;-2.230;2022-12-07T08:12:41;18.63;;;9.07;;
37221;SDS011;23119;51.842;-2.230;2022-12-07T08:15:29;17.25;;;7.13;;
37221;SDS011;23119;51.842;-2.230;2022-12-07T08:17:55;16.13;;;7.32;;
37221;SDS011;23119;51.842;-2.230;2022-12-07T08:20:21;16.05;;;7.47;;
37221;SDS011;23119;51.842;-2.230;2022-12-07T08:22:47;17.52;;;7.60;;
37221;SDS011;23119;51.842;-2.230;2022-12-07T08:25:15;19.65;;;8.27;;
37221;SDS011;23119;51.842;-2.230;2022-12-07T08:27:42;18.08;;;7.35;;
37221;SDS011;23119;51.842;-2.230;2022-12-07T08:30:09;18.75;;;7.97;;
37221;SDS011;23119;51.842;-2.230;2022-12-07T08:32:38;18.80;;;7.00;;
37221;SDS011;23119;51.842;-2.230;2022-12-07T08:35:04;15.02;;;6.45;;
37221;SDS011;23119;51.842;-2.230;2022-12-07T08:37:31;14.02;;;7.07;;
37221;SDS011;23119;51.842;-2.230;2022-12-07T08:39:57;14.32;;;7.32;;
37221;SDS011;23119;51.842;-2.230;2022-12-07T08:42:22;20.55;;;7.82;;
37221;SDS011;23119;51.842;-2.230;2022-12-07T08:44:55;17.73;;;7.95;;
37221;SDS011;23119;51.842;-2.230;2022-12-07T08:47:27;13.30;;;6.60;;
37221;SDS011;23119;51.842;-2.230;2022-12-07T08:49:53;16.48;;;6.88;;
37221;SDS011;23119;51.842;-2.230;2022-12-07T08:52:19;12.85;;;6.95;;
37221;SDS011;23119;51.842;-2.230;2022-12-07T08:54:51;15.60;;;6.75;;
37221;SDS011;23119;51.842;-2.230;2022-12-07T08:57:17;19.50;;;7.82;;
37221;SDS011;23119;51.842;-2.230;2022-12-07T08:59:47;16.45;;;6.95;;
37221;SDS011;23119;51.842;-2.230;2022-12-07T09:02:13;12.95;;;7.13;;
37221;SDS011;23119;51.842;-2.230;2022-12-07T09:04:41;20.38;;;7.38;;
37221;SDS011;23119;51.842;-2.230;2022-12-07T09:07:07;14.18;;;5.90;;
37221;SDS011;23119;51.842;-2.230;2022-12-07T09:09:33;17.52;;;7.25;;
37221;SDS011;23119;51.842;-2.230;2022-12-07T09:12:02;15.80;;;6.25;;
37221;SDS011;23119;51.842;-2.230;2022-12-07T09:14:28;11.80;;;5.95;;
37221;SDS011;23119;51.842;-2.230;2022-12-07T09:16:53;14.05;;;6.40;;
37221;SDS011;23119;51.842;-2.230;2022-12-07T09:19:22;12.32;;;6.15;;
37221;SDS011;23119;51.842;-2.230;2022-12-07T09:21:53;17.33;;;7.00;;
37221;SDS011;23119;51.842;-2.230;2022-12-07T09:24:21;15.77;;;6.85;;
37221;SDS011;23119;51.842;-2.230;2022-12-07T09:26:59;17.13;;;7.15;;
37221;SDS011;23119;51.842;-2.230;2022-12-07T09:29:24;18.85;;;7.60;;
37221;SDS011;23119;51.842;-2.230;2022-12-07T09:31:55;21.10;;;7.30;;
37221;SDS011;23119;51.842;-2.230;2022-12-07T09:34:23;11.52;;;6.25;;
37221;SDS011;23119;51.842;-2.230;2022-12-07T09:36:56;14.68;;;6.13;;
37221;SDS011;23119;51.842;-2.230;2022-12-07T09:39:21;11.85;;;6.65;;
37221;SDS011;23119;51.842;-2.230;2022-12-07T09:41:47;15.75;;;6.10;;
37221;SDS011;23119;51.842;-2.230;2022-12-07T09:44:14;11.00;;;4.55;;
37221;SDS011;23119;51.842;-2.230;2022-12-07T09:46:46;7.28;;;3.78;;
37221;SDS011;23119;51.842;-2.230;2022-12-07T09:49:20;9.88;;;3.63;;
37221;SDS011;23119;51.842;-2.230;2022-12-07T09:52:15;9.55;;;3.05;;
37221;SDS011;23119;51.842;-2.230;2022-12-07T09:57:29;8.00;;;5.18;;
37221;SDS011;23119;51.842;-2.230;2022-12-07T09:59:59;12.23;;;5.38;;
37221;SDS011;23119;51.842;-2.230;2022-12-07T10:02:35;9.23;;;4.60;;
37221;SDS011;23119;51.842;-2.230;2022-12-07T10:05:04;9.90;;;4.10;;
37221;SDS011;23119;51.842;-2.230;2022-12-07T10:07:39;9.73;;;3.53;;
37221;SDS011;23119;51.842;-2.230;2022-12-07T10:10:13;8.05;;;3.47;;
37221;SDS011;23119;51.842;-2.230;2022-12-07T10:12:56;8.20;;;3.60;;
37221;SDS011;23119;51.842;-2.230;2022-12-07T10:18:14;9.65;;;3.60;;
37221;SDS011;23119;51.842;-2.230;2022-12-07T10:20:59;7.40;;;3.88;;
37221;SDS011;23119;51.842;-2.230;2022-12-07T10:23:40;10.85;;;3.75;;
37221;SDS011;23119;51.842;-2.230;2022-12-07T10:32:04;7.00;;;3.55;;
37221;SDS011;23119;51.842;-2.230;2022-12-07T10:34:49;7.93;;;3.95;;
37221;SDS011;23119;51.842;-2.230;2022-12-07T10:37:16;7.78;;;3.78;;
37221;SDS011;23119;51.842;-2.230;2022-12-07T10:39:44;5.45;;;3.20;;
37221;SDS011;23119;51.842;-2.230;2022-12-07T10:42:23;6.32;;;2.92;;
37221;SDS011;23119;51.842;-2.230;2022-12-07T10:53:23;6.10;;;2.97;;
37221;SDS011;23119;51.842;-2.230;2022-12-07T11:05:11;10.48;;;4.00;;
37221;SDS011;23119;51.842;-2.230;2022-12-07T11:18:59;9.05;;;3.83;;
37221;SDS011;23119;51.842;-2.230;2022-12-07T11:21:48;9.63;;;3.22;;
37221;SDS011;23119;51.842;-2.230;2022-12-07T11:24:20;11.88;;;3.65;;
37221;SDS011;23119;51.842;-2.230;2022-12-07T11:27:01;10.85;;;4.55;;
37221;SDS011;23119;51.842;-2.230;2022-12-07T11:40:35;11.80;;;3.50;;
37221;SDS011;23119;51.842;-2.230;2022-12-07T11:43:21;12.18;;;3.05;;
37221;SDS011;23119;51.842;-2.230;2022-12-07T11:46:03;5.70;;;2.50;;
37221;SDS011;23119;51.842;-2.230;2022-12-07T11:53:52;6.70;;;2.47;;
37221;SDS011;23119;51.842;-2.230;2022-12-07T11:56:26;7.15;;;3.22;;
37221;SDS011;23119;51.842;-2.230;2022-12-07T11:58:57;5.72;;;1.98;;
37221;SDS011;23119;51.842;-2.230;2022-12-07T12:01:47;10.55;;;3.88;;
37221;SDS011;23119;51.842;-2.230;2022-12-07T12:04:23;12.38;;;3.55;;
37221;SDS011;23119;51.842;-2.230;2022-12-07T12:06:59;9.35;;;2.70;;
37221;SDS011;23119;51.842;-2.230;2022-12-07T12:09:40;9.77;;;3.63;;
37221;SDS011;23119;51.842;-2.230;2022-12-07T12:18:00;11.85;;;3.13;;
37221;SDS011;23119;51.842;-2.230;2022-12-07T12:20:39;6.13;;;2.88;;
37221;SDS011;23119;51.842;-2.230;2022-12-07T12:23:16;7.88;;;2.55;;
37221;SDS011;23119;51.842;-2.230;2022-12-07T12:25:46;10.02;;;2.60;;
37221;SDS011;23119;51.842;-2.230;2022-12-07T12:28:23;9.45;;;2.92;;
37221;SDS011;23119;51.842;-2.230;2022-12-07T12:31:07;11.73;;;2.63;;
37221;SDS011;23119;51.842;-2.230;2022-12-07T12:33:44;9.13;;;2.60;;
37221;SDS011;23119;51.842;-2.230;2022-12-07T12:47:37;9.18;;;2.55;;
37221;SDS011;23119;51.842;-2.230;2022-12-07T12:50:37;7.68;;;2.40;;
37221;SDS011;23119;51.842;-2.230;2022-12-07T12:53:19;8.27;;;2.70;;
37221;SDS011;23119;51.842;-2.230;2022-12-07T12:55:58;13.10;;;2.50;;
37221;SDS011;23119;51.842;-2.230;2022-12-07T12:58:40;7.53;;;2.30;;
37221;SDS011;23119;51.842;-2.230;2022-12-07T13:04:02;5.93;;;2.47;;
37221;SDS011;23119;51.842;-2.230;2022-12-07T13:06:34;10.38;;;2.90;;
37221;SDS011;23119;51.842;-2.230;2022-12-07T13:09:03;7.95;;;2.15;;
37221;SDS011;23119;51.842;-2.230;2022-12-07T13:16:59;9.93;;;1.95;;
37221;SDS011;23119;51.842;-2.230;2022-12-07T13:25:02;6.93;;;2.03;;
37221;SDS011;23119;51.842;-2.230;2022-12-07T13:27:32;6.60;;;2.08;;
37221;SDS011;23119;51.842;-2.230;2022-12-07T13:30:11;4.75;;;1.70;;
37221;SDS011;23119;51.842;-2.230;2022-12-07T13:32:52;6.63;;;1.63;;
37221;SDS011;23119;51.842;-2.230;2022-12-07T13:35:30;7.80;;;1.65;;
37221;SDS011;23119;51.842;-2.230;2022-12-07T13:37:58;11.05;;;1.90;;
37221;SDS011;23119;51.842;-2.230;2022-12-07T13:40:26;4.78;;;1.58;;
37221;SDS011;23119;51.842;-2.230;2022-12-07T13:43:02;4.72;;;1.55;;
37221;SDS011;23119;51.842;-2.230;2022-12-07T13:45:41;7.43;;;1.40;;
37221;SDS011;23119;51.842;-2.230;2022-12-07T13:48:32;5.97;;;1.60;;
37221;SDS011;23119;51.842;-2.230;2022-12-07T13:51:14;5.63;;;1.20;;
37221;SDS011;23119;51.842;-2.230;2022-12-07T13:53:47;7.85;;;1.60;;
37221;SDS011;23119;51.842;-2.230;2022-12-07T13:56:21;5.25;;;1.35;;
37221;SDS011;23119;51.842;-2.230;2022-12-07T13:58:50;4.88;;;1.55;;
37221;SDS011;23119;51.842;-2.230;2022-12-07T14:01:19;8.35;;;1.75;;
37221;SDS011;23119;51.842;-2.230;2022-12-07T14:03:48;8.27;;;1.35;;
37221;SDS011;23119;51.842;-2.230;2022-12-07T14:06:18;4.60;;;1.70;;
37221;SDS011;23119;51.842;-2.230;2022-12-07T14:09:08;5.40;;;2.00;;
37221;SDS011;23119;51.842;-2.230;2022-12-07T14:11:43;6.90;;;1.77;;
37221;SDS011;23119;51.842;-2.230;2022-12-07T14:14:13;12.20;;;1.85;;
37221;SDS011;23119;51.842;-2.230;2022-12-07T14:19:39;5.03;;;1.67;;
37221;SDS011;23119;51.842;-2.230;2022-12-07T14:22:27;6.90;;;2.03;;
37221;SDS011;23119;51.842;-2.230;2022-12-07T14:27:32;5.60;;;1.73;;
37221;SDS011;23119;51.842;-2.230;2022-12-07T14:30:03;4.38;;;1.67;;
37221;SDS011;23119;51.842;-2.230;2022-12-07T14:32:34;13.77;;;1.92;;
37221;SDS011;23119;51.842;-2.230;2022-12-07T14:35:12;9.30;;;1.90;;
37221;SDS011;23119;51.842;-2.230;2022-12-07T14:37:39;5.05;;;1.45;;
37221;SDS011;23119;51.842;-2.230;2022-12-07T14:40:12;7.28;;;1.67;;
37221;SDS011;23119;51.842;-2.230;2022-12-07T14:42:39;5.80;;;1.48;;
37221;SDS011;23119;51.842;-2.230;2022-12-07T14:45:16;4.68;;;1.83;;
37221;SDS011;23119;51.842;-2.230;2022-12-07T14:47:49;5.38;;;1.48;;
37221;SDS011;23119;51.842;-2.230;2022-12-07T14:50:16;5.35;;;1.50;;
37221;SDS011;23119;51.842;-2.230;2022-12-07T14:52:54;6.20;;;1.23;;
37221;SDS011;23119;51.842;-2.230;2022-12-07T14:55:30;7.43;;;1.45;;
37221;SDS011;23119;51.842;-2.230;2022-12-07T14:57:58;2.45;;;1.02;;
37221;SDS011;23119;51.842;-2.230;2022-12-07T15:00:25;7.32;;;1.05;;
37221;SDS011;23119;51.842;-2.230;2022-12-07T15:02:53;5.45;;;0.95;;
37221;SDS011;23119;51.842;-2.230;2022-12-07T15:05:22;5.72;;;1.20;;
37221;SDS011;23119;51.842;-2.230;2022-12-07T15:07:48;6.30;;;1.75;;
37221;SDS011;23119;51.842;-2.230;2022-12-07T15:10:25;5.28;;;1.00;;
37221;SDS011;23119;51.842;-2.230;2022-12-07T15:13:01;7.65;;;1.27;;
37221;SDS011;23119;51.842;-2.230;2022-12-07T15:15:46;5.07;;;1.38;;
37221;SDS011;23119;51.842;-2.230;2022-12-07T15:18:13;8.40;;;1.42;;
37221;SDS011;23119;51.842;-2.230;2022-12-07T15:20:39;2.17;;;0.70;;
37221;SDS011;23119;51.842;-2.230;2022-12-07T15:23:05;7.25;;;1.63;;
37221;SDS011;23119;51.842;-2.230;2022-12-07T15:25:31;5.82;;;1.20;;
37221;SDS011;23119;51.842;-2.230;2022-12-07T15:27:59;6.00;;;0.80;;
37221;SDS011;23119;51.842;-2.230;2022-12-07T15:30:25;6.63;;;1.27;;
37221;SDS011;23119;51.842;-2.230;2022-12-07T15:32:51;5.00;;;1.70;;
37221;SDS011;23119;51.842;-2.230;2022-12-07T15:35:20;6.07;;;1.27;;
37221;SDS011;23119;51.842;-2.230;2022-12-07T15:37:46;7.18;;;1.63;;
37221;SDS011;23119;51.842;-2.230;2022-12-07T15:40:12;5.85;;;1.15;;
37221;SDS011;23119;51.842;-2.230;2022-12-07T15:42:52;6.53;;;1.20;;
37221;SDS011;23119;51.842;-2.230;2022-12-07T15:45:20;3.63;;;0.88;;
37221;SDS011;23119;51.842;-2.230;2022-12-07T15:47:46;3.60;;;1.17;;
37221;SDS011;23119;51.842;-2.230;2022-12-07T15:50:12;2.85;;;1.20;;
37221;SDS011;23119;51.842;-2.230;2022-12-07T15:52:40;5.43;;;1.27;;
37221;SDS011;23119;51.842;-2.230;2022-12-07T15:55:06;4.63;;;1.63;;
37221;SDS011;23119;51.842;-2.230;2022-12-07T15:57:34;2.67;;;0.70;;
37221;SDS011;23119;51.842;-2.230;2022-12-07T16:00:02;8.35;;;1.23;;
37221;SDS011;23119;51.842;-2.230;2022-12-07T16:02:36;4.47;;;1.13;;
37221;SDS011;23119;51.842;-2.230;2022-12-07T16:05:02;4.55;;;1.13;;
37221;SDS011;23119;51.842;-2.230;2022-12-07T16:07:31;3.30;;;1.13;;
37221;SDS011;23119;51.842;-2.230;2022-12-07T16:10:06;4.57;;;1.50;;
37221;SDS011;23119;51.842;-2.230;2022-12-07T16:12:37;7.63;;;1.20;;
37221;SDS011;23119;51.842;-2.230;2022-12-07T16:15:03;5.43;;;1.42;;
37221;SDS011;23119;51.842;-2.230;2022-12-07T16:17:29;4.75;;;1.98;;
37221;SDS011;23119;51.842;-2.230;2022-12-07T16:19:57;5.43;;;1.20;;
37221;SDS011;23119;51.842;-2.230;2022-12-07T16:22:25;7.18;;;1.30;;
37221;SDS011;23119;51.842;-2.230;2022-12-07T16:24:51;7.25;;;1.58;;
37221;SDS011;23119;51.842;-2.230;2022-12-07T16:27:17;6.72;;;1.55;;
37221;SDS011;23119;51.842;-2.230;2022-12-07T16:29:49;7.70;;;1.70;;
37221;SDS011;23119;51.842;-2.230;2022-12-07T16:32:18;4.88;;;1.42;;
37221;SDS011;23119;51.842;-2.230;2022-12-07T16:34:44;4.68;;;1.30;;
37221;SDS011;23119;51.842;-2.230;2022-12-07T16:37:12;7.25;;;2.08;;
37221;SDS011;23119;51.842;-2.230;2022-12-07T16:39:40;4.75;;;1.40;;
37221;SDS011;23119;51.842;-2.230;2022-12-07T16:42:07;4.18;;;1.88;;
37221;SDS011;23119;51.842;-2.230;2022-12-07T16:44:36;5.50;;;1.50;;
37221;SDS011;23119;51.842;-2.230;2022-12-07T16:47:01;6.28;;;1.67;;
37221;SDS011;23119;51.842;-2.230;2022-12-07T16:49:29;6.95;;;2.47;;